Time;durP1;ratioP1;P1;durP2;ratioP2;P2;SDS_P1;SDS_P2;PMS_P1;PMS_P2;Temp;Humidity;BMP_temperature;BMP_pressure;BME280_temperature;BME280_humidity;BME280_pressure;Samples;Min_cycle;Max_cycle;Signal;HPM_P1;HPM_P2
2022/05/07 00:01:12;;;;;;;0.50;0.50;;;12.90;99.90;;;;;;5033930;28;20045;-62
2022/05/07 00:03:38;;;;;;;1.92;0.50;;;13.00;99.90;;;;;;5033629;28;20040;-62
2022/05/07 00:06:04;;;;;;;1.80;0.57;;;13.00;99.90;;;;;;5033777;28;20037;-62
2022/05/07 00:08:30;;;;;;;0.85;0.40;;;13.00;99.90;;;;;;5033704;28;20041;-62
2022/05/07 00:10:55;;;;;;;0.90;0.40;;;13.00;99.90;;;;;;5033736;28;20168;-61
2022/05/07 00:13:21;;;;;;;0.47;0.47;;;13.00;99.90;;;;;;5033493;28;20038;-62
2022/05/07 00:18:31;;;;;;;0.77;0.60;;;13.10;99.90;;;;;;5032773;28;20037;-62
2022/05/07 00:20:56;;;;;;;0.90;0.43;;;13.10;99.90;;;;;;5033535;28;20041;-62
2022/05/07 00:23:22;;;;;;;0.30;0.30;;;13.10;99.90;;;;;;5033367;28;20116;-64
2022/05/07 00:25:47;;;;;;;1.90;0.60;;;13.00;99.90;;;;;;5033392;28;20135;-65
2022/05/07 00:28:13;;;;;;;2.65;0.60;;;13.00;99.90;;;;;;5033314;28;20041;-64
2022/05/07 00:30:39;;;;;;;0.93;0.50;;;13.00;99.90;;;;;;5033105;28;20034;-63
2022/05/07 00:33:05;;;;;;;0.77;0.50;;;13.00;99.90;;;;;;5033399;28;20422;-62
2022/05/07 00:35:30;;;;;;;1.70;0.50;;;13.10;99.90;;;;;;5033208;28;20036;-62
2022/05/07 00:37:56;;;;;;;0.98;0.47;;;13.00;99.90;;;;;;5033319;28;20041;-62
2022/05/07 00:40:21;;;;;;;1.67;0.50;;;13.00;99.90;;;;;;5033092;28;20041;-62
2022/05/07 00:42:47;;;;;;;1.23;0.68;;;13.00;99.90;;;;;;5033255;28;20433;-61
2022/05/07 00:45:13;;;;;;;0.82;0.52;;;13.00;99.90;;;;;;5032995;28;20037;-62
2022/05/07 00:47:39;;;;;;;2.13;0.55;;;12.90;99.90;;;;;;5032987;28;20037;-62
2022/05/07 00:52:51;;;;;;;2.08;0.73;;;12.90;99.90;;;;;;5018282;28;20068;-62
2022/05/07 00:55:16;;;;;;;1.02;0.93;;;12.80;99.90;;;;;;5033187;28;20490;-62
2022/05/07 00:57:42;;;;;;;1.33;0.52;;;12.80;99.90;;;;;;5033008;28;20033;-61
2022/05/07 01:00:09;;;;;;;0.80;0.60;;;12.70;99.90;;;;;;5032874;28;20029;-62
2022/05/07 01:02:36;;;;;;;0.60;0.60;;;12.70;99.90;;;;;;5032755;28;20037;-62
2022/05/07 01:05:04;;;;;;;0.95;0.68;;;12.70;99.90;;;;;;5032894;28;20033;-62
2022/05/07 01:07:31;;;;;;;1.60;0.65;;;12.60;99.90;;;;;;5032564;28;20036;-62
2022/05/07 01:09:57;;;;;;;;;;;12.60;99.90;;;;;;5033066;28;20018;-62
2022/05/07 01:12:23;;;;;;;0.50;0.47;;;12.60;99.90;;;;;;5032447;28;19928;-62
2022/05/07 01:14:48;;;;;;;1.85;0.65;;;12.50;99.90;;;;;;5032734;28;20496;-62
2022/05/07 01:17:15;;;;;;;1.23;0.50;;;12.50;99.90;;;;;;5032765;28;20041;-63
2022/05/07 01:19:40;;;;;;;2.33;0.80;;;12.50;99.90;;;;;;5032718;28;20041;-62
2022/05/07 01:22:06;;;;;;;0.60;0.50;;;12.40;99.90;;;;;;5032555;28;20393;-62
2022/05/07 01:24:32;;;;;;;1.73;0.70;;;12.40;99.90;;;;;;5032742;28;20045;-63
2022/05/07 01:26:57;;;;;;;0.68;0.60;;;12.40;99.90;;;;;;5032366;28;20135;-62
2022/05/07 01:29:25;;;;;;;0.70;0.60;;;12.30;99.90;;;;;;5032360;28;20030;-63
2022/05/07 01:31:50;;;;;;;1.25;0.77;;;12.20;99.90;;;;;;5032525;28;20037;-63
2022/05/07 01:34:16;;;;;;;0.63;0.60;;;12.20;99.90;;;;;;5032418;28;20034;-63
2022/05/07 01:36:43;;;;;;;1.17;0.90;;;12.20;99.90;;;;;;5032421;28;20033;-63
2022/05/07 01:39:08;;;;;;;0.80;0.60;;;12.10;99.90;;;;;;5032446;28;20486;-63
2022/05/07 01:41:34;;;;;;;1.30;0.82;;;12.00;99.90;;;;;;5032331;28;20041;-63
2022/05/07 01:43:59;;;;;;;0.93;0.65;;;12.00;99.90;;;;;;5032458;28;20025;-64
2022/05/07 01:49:09;;;;;;;1.50;1.00;;;12.00;99.90;;;;;;5032332;28;20100;-64
2022/05/07 01:51:35;;;;;;;0.85;0.80;;;12.00;99.90;;;;;;5032208;28;20029;-64
2022/05/07 01:54:01;;;;;;;0.73;0.60;;;11.90;99.90;;;;;;5032100;28;20023;-64
2022/05/07 01:56:27;;;;;;;1.25;0.55;;;11.90;99.90;;;;;;5032224;28;20039;-64
2022/05/07 01:58:52;;;;;;;0.98;0.70;;;11.90;99.90;;;;;;5032170;28;20025;-64
2022/05/07 02:01:19;;;;;;;0.93;0.65;;;11.90;99.90;;;;;;5032193;28;20048;-64
2022/05/07 02:03:44;;;;;;;3.00;2.00;;;11.90;99.90;;;;;;5032065;28;20049;-64
2022/05/07 02:06:10;;;;;;;0.60;0.60;;;11.90;99.90;;;;;;5032224;28;20394;-64
2022/05/07 02:08:36;;;;;;;0.70;0.57;;;12.00;99.90;;;;;;5031918;28;20132;-64
2022/05/07 02:11:02;;;;;;;1.05;0.80;;;11.90;99.90;;;;;;5032039;28;20440;-64
2022/05/07 02:13:28;;;;;;;0.93;0.70;;;12.00;99.90;;;;;;5032104;28;20112;-64
2022/05/07 02:15:54;;;;;;;1.13;0.80;;;12.00;99.90;;;;;;5032062;28;20041;-64
2022/05/07 02:18:20;;;;;;;0.85;0.80;;;12.00;99.90;;;;;;5032145;28;20038;-65
2022/05/07 02:20:45;;;;;;;0.82;0.68;;;12.00;99.90;;;;;;5031986;28;20482;-64
2022/05/07 02:23:11;;;;;;;1.15;0.80;;;12.00;99.90;;;;;;5031709;28;20057;-64
2022/05/07 02:25:37;;;;;;;1.30;0.70;;;12.00;99.90;;;;;;5031836;28;20046;-64
2022/05/07 02:28:03;;;;;;;1.15;0.80;;;12.00;99.90;;;;;;5032052;28;20087;-65
2022/05/07 02:30:29;;;;;;;0.82;0.60;;;12.00;99.90;;;;;;5031803;28;20041;-64
2022/05/07 02:32:55;;;;;;;1.08;0.55;;;12.00;99.90;;;;;;5031851;28;20564;-64
2022/05/07 02:35:21;;;;;;;1.92;0.77;;;11.90;99.90;;;;;;5031894;28;20113;-64
2022/05/07 02:37:48;;;;;;;3.90;1.40;;;11.90;99.90;;;;;;5031821;28;20038;-65
2022/05/07 02:40:13;;;;;;;1.23;0.70;;;11.80;99.90;;;;;;5031961;28;20026;-64
2022/05/07 02:42:39;;;;;;;1.10;0.77;;;11.70;99.90;;;;;;5035288;28;20036;-65
2022/05/07 02:45:07;;;;;;;0.93;0.75;;;11.70;99.90;;;;;;5035442;28;20425;-64
2022/05/07 02:47:34;;;;;;;3.63;0.60;;;11.70;99.90;;;;;;5035210;28;20037;-64
2022/05/07 02:50:00;;;;;;;0.57;0.55;;;11.70;99.90;;;;;;5035232;28;20034;-65
2022/05/07 02:52:26;;;;;;;1.35;0.75;;;11.70;99.90;;;;;;5034971;28;20556;-64
2022/05/07 02:54:52;;;;;;;1.08;0.80;;;11.60;99.90;;;;;;5017609;28;20038;-64
2022/05/07 02:57:17;;;;;;;1.95;0.77;;;11.60;99.90;;;;;;5035134;28;20037;-64
2022/05/07 02:59:43;;;;;;;2.25;0.93;;;11.40;99.90;;;;;;5035113;28;20040;-65
2022/05/07 03:02:10;;;;;;;0.60;0.55;;;11.40;99.90;;;;;;5035057;28;20489;-64
2022/05/07 03:04:36;;;;;;;1.83;1.00;;;11.30;99.90;;;;;;5034957;28;20042;-64
2022/05/07 03:07:01;;;;;;;0.77;0.70;;;11.20;99.90;;;;;;5034929;28;20043;-65
2022/05/07 03:09:27;;;;;;;1.58;0.90;;;11.10;99.90;;;;;;5034701;28;20052;-64
2022/05/07 03:11:53;;;;;;;2.40;0.80;;;11.00;99.90;;;;;;5034845;28;20037;-65
2022/05/07 03:14:18;;;;;;;2.67;0.77;;;10.90;99.90;;;;;;5034768;28;20034;-64
2022/05/07 03:16:46;;;;;;;1.83;0.90;;;10.90;99.90;;;;;;5034780;28;20039;-65
2022/05/07 03:19:12;;;;;;;2.10;0.90;;;10.90;99.90;;;;;;5034634;28;20025;-64
2022/05/07 03:21:38;;;;;;;2.45;0.98;;;10.80;99.90;;;;;;5034557;28;20436;-64
2022/05/07 03:24:03;;;;;;;1.23;0.93;;;10.80;99.90;;;;;;5016878;28;20037;-65
2022/05/07 03:26:29;;;;;;;1.20;1.00;;;10.70;99.90;;;;;;5024517;28;20057;-65
2022/05/07 03:28:55;;;;;;;3.17;1.00;;;10.80;99.90;;;;;;5014774;28;20073;-65
2022/05/07 03:31:20;;;;;;;1.50;1.00;;;10.80;99.90;;;;;;5014598;28;20103;-65
2022/05/07 03:33:47;;;;;;;1.98;1.17;;;11.00;99.90;;;;;;5014687;28;20125;-64
2022/05/07 03:36:15;;;;;;;1.88;1.25;;;11.10;99.90;;;;;;5014522;28;20030;-64
2022/05/07 03:38:41;;;;;;;5.05;1.10;;;11.10;99.90;;;;;;5014569;28;20586;-64
2022/05/07 03:41:07;;;;;;;2.70;1.33;;;11.20;99.90;;;;;;5014454;28;20438;-65
2022/05/07 03:43:36;;;;;;;3.30;1.20;;;11.30;99.90;;;;;;5014654;28;20026;-64
2022/05/07 03:46:03;;;;;;;2.17;1.02;;;11.30;99.90;;;;;;5014285;28;20042;-64
2022/05/07 03:48:29;;;;;;;0.70;0.70;;;11.30;99.90;;;;;;5014377;28;20026;-65
2022/05/07 03:50:55;;;;;;;3.42;1.02;;;11.30;99.90;;;;;;5014086;28;20425;-65
2022/05/07 03:53:29;;;;;;;1.15;1.00;;;11.40;99.90;;;;;;5013225;28;20073;-65
2022/05/07 03:55:56;;;;;;;3.10;1.08;;;11.40;99.90;;;;;;5014250;28;20030;-65
2022/05/07 03:58:22;;;;;;;1.37;0.70;;;11.40;99.90;;;;;;5014312;28;20036;-64
2022/05/07 04:00:47;;;;;;;0.75;0.70;;;11.40;99.90;;;;;;5014084;28;20346;-64
2022/05/07 04:03:13;;;;;;;0.95;0.80;;;11.50;99.90;;;;;;5013952;28;20417;-65
2022/05/07 04:05:39;;;;;;;1.48;0.80;;;11.50;99.90;;;;;;5014222;28;20048;-65
2022/05/07 04:08:06;;;;;;;1.10;0.80;;;11.50;99.90;;;;;;5014079;28;20029;-64
2022/05/07 04:10:31;;;;;;;2.20;0.80;;;11.60;99.90;;;;;;5013842;28;20504;-65
2022/05/07 04:12:57;;;;;;;1.60;1.20;;;11.50;99.90;;;;;;5013945;28;20034;-65
2022/05/07 04:15:23;;;;;;;2.75;1.13;;;11.60;99.90;;;;;;5013808;28;20038;-64
2022/05/07 04:17:49;;;;;;;0.82;0.82;;;11.50;99.90;;;;;;5013742;28;20157;-64
2022/05/07 04:20:16;;;;;;;2.00;1.00;;;11.50;99.90;;;;;;5014041;28;20042;-64
2022/05/07 04:22:42;;;;;;;1.58;1.40;;;11.50;99.90;;;;;;5013852;28;20105;-65
2022/05/07 04:25:09;;;;;;;4.18;1.83;;;11.50;99.90;;;;;;5013835;28;20037;-65
2022/05/07 04:27:35;;;;;;;2.47;1.55;;;11.50;99.90;;;;;;5014819;28;20057;-65
2022/05/07 04:30:02;;;;;;;2.33;1.33;;;11.50;99.90;;;;;;5033830;28;20033;-64
2022/05/07 04:32:28;;;;;;;4.22;1.80;;;11.60;99.90;;;;;;5033013;28;20041;-65
2022/05/07 04:34:57;;;;;;;4.63;1.42;;;11.60;99.90;;;;;;5033536;28;20057;-65
2022/05/07 04:37:26;;;;;;;3.63;2.22;;;11.60;99.90;;;;;;5033255;28;20048;-65
2022/05/07 04:39:52;;;;;;;3.20;1.52;;;11.60;99.90;;;;;;5033117;28;20028;-65
2022/05/07 04:42:18;;;;;;;5.78;1.80;;;11.70;99.90;;;;;;5033307;28;20077;-65
2022/05/07 04:44:43;;;;;;;2.03;1.50;;;11.70;99.90;;;;;;5033033;28;20434;-65
2022/05/07 04:47:09;;;;;;;3.33;1.48;;;11.70;99.90;;;;;;5033065;28;20113;-65
2022/05/07 04:49:36;;;;;;;3.13;1.30;;;11.70;99.90;;;;;;5033057;28;20103;-65
2022/05/07 04:52:02;;;;;;;1.60;1.10;;;11.80;99.90;;;;;;5033086;28;20041;-65
2022/05/07 04:54:28;;;;;;;3.35;1.20;;;11.80;99.90;;;;;;5033010;28;20033;-65
2022/05/07 04:56:54;;;;;;;1.73;1.00;;;11.80;99.90;;;;;;5033008;28;20658;-65
2022/05/07 04:59:20;;;;;;;2.25;1.23;;;11.90;99.90;;;;;;5032890;28;20033;-64
2022/05/07 05:01:46;;;;;;;1.85;1.35;;;11.90;99.90;;;;;;5032648;28;20034;-65
2022/05/07 05:04:13;;;;;;;2.10;1.33;;;12.00;99.90;;;;;;5032537;28;20120;-65
2022/05/07 05:06:39;;;;;;;1.27;1.10;;;12.10;99.90;;;;;;5032787;28;20041;-65
2022/05/07 05:09:06;;;;;;;1.25;1.15;;;12.20;99.90;;;;;;5032874;28;20440;-65
2022/05/07 05:11:33;;;;;;;0.93;0.90;;;12.20;99.90;;;;;;5032622;28;20041;-65
2022/05/07 05:13:58;;;;;;;2.00;1.13;;;12.30;99.90;;;;;;5032714;28;20481;-65
2022/05/07 05:16:24;;;;;;;2.10;1.35;;;12.30;99.90;;;;;;5032595;28;20053;-65
2022/05/07 05:18:51;;;;;;;2.38;1.35;;;12.40;99.90;;;;;;5032683;28;20030;-64
2022/05/07 05:21:17;;;;;;;1.90;1.25;;;12.50;99.90;;;;;;5032527;28;20041;-64
2022/05/07 05:23:42;;;;;;;1.40;0.95;;;12.50;99.90;;;;;;5032566;28;20067;-65
2022/05/07 05:26:08;;;;;;;1.35;1.00;;;12.60;99.90;;;;;;5032481;28;20057;-64
2022/05/07 05:28:37;;;;;;;1.38;0.95;;;12.70;99.90;;;;;;5032441;28;20045;-64
2022/05/07 05:31:03;;;;;;;1.25;0.95;;;12.70;99.90;;;;;;5032355;28;20037;-64
2022/05/07 05:33:28;;;;;;;1.05;0.93;;;12.80;99.90;;;;;;5032556;28;20044;-64
2022/05/07 05:35:54;;;;;;;1.58;1.20;;;12.80;99.90;;;;;;5032603;28;20116;-64
2022/05/07 05:38:20;;;;;;;1.90;1.20;;;12.90;99.90;;;;;;5032495;28;20509;-64
2022/05/07 05:40:45;;;;;;;1.80;1.20;;;12.90;99.90;;;;;;5032367;28;20097;-65
2022/05/07 05:43:11;;;;;;;1.80;1.30;;;13.00;99.90;;;;;;5032240;28;20084;-64
2022/05/07 05:45:37;;;;;;;3.35;1.35;;;12.90;99.90;;;;;;5032272;28;20440;-64
2022/05/07 05:48:04;;;;;;;1.45;1.10;;;12.90;99.90;;;;;;5032421;28;20037;-64
2022/05/07 05:50:30;;;;;;;2.30;1.15;;;12.90;99.90;;;;;;5032175;28;20026;-64
2022/05/07 05:52:59;;;;;;;1.95;1.25;;;12.90;99.90;;;;;;5032291;28;20107;-65
2022/05/07 05:55:25;;;;;;;2.42;1.25;;;12.80;99.90;;;;;;5032139;28;20037;-64
2022/05/07 05:57:51;;;;;;;1.52;1.30;;;12.80;99.90;;;;;;5032162;28;20101;-64
2022/05/07 06:00:17;;;;;;;2.03;1.48;;;12.80;99.90;;;;;;5032467;28;20037;-64
2022/05/07 06:02:44;;;;;;;1.80;1.23;;;12.70;99.90;;;;;;5032156;28;20026;-64
2022/05/07 06:05:13;;;;;;;1.83;1.23;;;12.60;99.90;;;;;;5032200;28;20026;-64
2022/05/07 06:07:39;;;;;;;1.70;1.05;;;12.60;99.90;;;;;;5032148;28;20105;-64
2022/05/07 06:10:05;;;;;;;2.63;1.15;;;12.50;99.90;;;;;;5032275;28;20045;-64
2022/05/07 06:12:31;;;;;;;3.03;1.50;;;12.60;99.90;;;;;;5031835;28;20421;-64
2022/05/07 06:14:57;;;;;;;2.38;1.42;;;12.70;99.90;;;;;;5032216;28;20473;-64
2022/05/07 06:17:23;;;;;;;4.03;1.48;;;12.80;99.90;;;;;;5035674;28;20029;-64
2022/05/07 06:19:49;;;;;;;2.88;1.60;;;13.00;99.90;;;;;;5036158;28;20084;-64
2022/05/07 06:22:15;;;;;;;1.88;1.55;;;13.30;99.90;;;;;;5035785;28;20030;-64
2022/05/07 06:27:28;;;;;;;2.53;1.52;;;13.70;99.90;;;;;;5035619;28;20100;-64
2022/05/07 06:29:56;;;;;;;3.78;1.50;;;13.90;99.90;;;;;;5035777;28;20047;-64
2022/05/07 06:32:35;;;;;;;3.25;1.85;;;14.10;99.90;;;;;;5035668;28;20065;-64
2022/05/07 06:35:03;;;;;;;2.33;1.38;;;14.20;99.90;;;;;;5035746;28;20441;-64
2022/05/07 06:37:31;;;;;;;2.65;1.50;;;14.20;99.90;;;;;;5035186;28;20494;-64
2022/05/07 06:39:57;;;;;;;2.08;1.23;;;14.20;99.90;;;;;;5035579;28;20080;-64
2022/05/07 06:42:23;;;;;;;4.10;1.77;;;14.20;99.90;;;;;;5035570;28;20486;-64
2022/05/07 06:44:49;;;;;;;2.25;1.90;;;14.20;99.90;;;;;;5035546;28;20044;-64
2022/05/07 06:47:16;;;;;;;4.18;1.77;;;14.20;99.90;;;;;;5035447;28;20050;-64
2022/05/07 06:49:43;;;;;;;4.90;1.80;;;14.30;99.90;;;;;;5035423;28;20112;-64
2022/05/07 06:52:09;;;;;;;2.28;1.35;;;14.30;99.90;;;;;;5017677;28;20041;-64
2022/05/07 06:54:35;;;;;;;3.70;1.50;;;14.30;99.90;;;;;;5034985;28;20604;-63
2022/05/07 06:57:03;;;;;;;3.13;1.88;;;14.40;99.90;;;;;;5035320;28;20070;-62
2022/05/07 06:59:29;;;;;;;;;;;14.50;99.90;;;;;;5035390;28;20095;-62
2022/05/07 07:01:55;;;;;;;3.63;1.63;;;14.50;99.90;;;;;;5035151;28;19913;-62
2022/05/07 07:04:21;;;;;;;2.72;2.20;;;14.40;99.90;;;;;;5035091;28;20056;-62
2022/05/07 07:06:47;;;;;;;5.47;2.30;;;14.40;99.90;;;;;;5034963;28;20034;-62
2022/05/07 07:09:13;;;;;;;4.53;1.90;;;14.40;99.90;;;;;;5034910;28;20112;-62
2022/05/07 07:11:39;;;;;;;4.18;1.70;;;14.50;99.90;;;;;;5034804;28;20105;-62
2022/05/07 07:14:04;;;;;;;3.80;1.95;;;14.60;99.90;;;;;;5034883;28;20045;-62
2022/05/07 07:16:30;;;;;;;3.38;2.00;;;14.60;99.90;;;;;;5033331;28;20044;-63
2022/05/07 07:18:56;;;;;;;2.83;1.77;;;14.60;99.90;;;;;;5034816;28;20038;-62
2022/05/07 07:21:22;;;;;;;3.05;1.88;;;14.70;99.90;;;;;;5016823;28;20037;-62
2022/05/07 07:23:48;;;;;;;3.10;2.40;;;14.80;99.90;;;;;;5034523;28;20033;-63
2022/05/07 07:26:14;;;;;;;5.93;2.47;;;14.90;99.90;;;;;;5034333;28;20053;-62
2022/05/07 07:28:40;;;;;;;3.30;1.58;;;15.10;99.90;;;;;;5034660;28;20482;-62
2022/05/07 07:31:06;;;;;;;3.00;1.98;;;15.30;99.90;;;;;;5034490;28;20390;-62
2022/05/07 07:33:32;;;;;;;3.53;1.85;;;15.40;99.90;;;;;;5034229;28;20048;-62
2022/05/07 07:35:57;;;;;;;5.22;1.85;;;15.60;99.90;;;;;;5034411;28;20037;-62
2022/05/07 07:38:23;;;;;;;3.40;1.90;;;15.80;99.90;;;;;;5034292;28;20394;-62
2022/05/07 07:40:51;;;;;;;1.83;1.70;;;15.90;99.90;;;;;;5033103;28;20017;-63
2022/05/07 07:43:17;;;;;;;;;;;16.10;99.90;;;;;;5034839;28;20436;-62
2022/05/07 07:48:27;;;;;;;2.55;1.83;;;16.20;99.90;;;;;;5033627;28;20094;-62
2022/05/07 07:50:53;;;;;;;1.75;1.63;;;16.30;99.90;;;;;;5015926;28;20444;-62
2022/05/07 07:53:22;;;;;;;2.58;1.50;;;16.40;99.90;;;;;;5033117;28;20081;-62
2022/05/07 07:55:48;;;;;;;1.95;1.40;;;16.60;99.90;;;;;;5034029;28;20176;-63
2022/05/07 07:58:14;;;;;;;2.75;1.60;;;16.80;99.90;;;;;;5033993;28;20480;-62
2022/05/07 08:00:42;;;;;;;2.65;1.30;;;16.80;99.90;;;;;;5033834;28;20060;-62
2022/05/07 08:03:13;;;;;;;2.10;1.70;;;16.90;99.90;;;;;;5033755;28;20600;-62
2022/05/07 08:05:40;;;;;;;1.63;1.17;;;16.80;99.90;;;;;;5033714;28;20091;-62
2022/05/07 08:13:36;;;;;;;2.08;1.40;;;16.90;99.90;;;;;;5033679;28;20401;-62
2022/05/07 08:16:03;;;;;;;2.35;1.63;;;17.20;99.90;;;;;;5033603;28;20113;-62
2022/05/07 08:18:29;;;;;;;1.48;1.10;;;17.20;99.40;;;;;;5033362;28;20536;-62
2022/05/07 08:20:56;;;;;;;1.40;1.15;;;17.30;99.50;;;;;;5033546;28;20033;-62
2022/05/07 08:23:22;;;;;;;3.22;1.55;;;17.30;99.10;;;;;;5033277;28;20076;-63
2022/05/07 08:25:48;;;;;;;0.98;0.90;;;17.20;98.80;;;;;;5032989;28;20341;-62
2022/05/07 08:28:14;;;;;;;1.70;1.40;;;17.20;99.10;;;;;;5033371;28;20520;-63
2022/05/07 08:30:39;;;;;;;1.33;1.23;;;17.20;99.20;;;;;;5033134;28;20057;-63
2022/05/07 08:33:05;;;;;;;1.23;1.13;;;17.30;99.40;;;;;;5033477;28;20041;-62
2022/05/07 08:35:31;;;;;;;1.52;0.90;;;17.60;99.10;;;;;;5033188;28;20439;-63
2022/05/07 08:37:57;;;;;;;0.80;0.80;;;17.90;98.30;;;;;;5032780;28;20081;-62
2022/05/07 08:40:24;;;;;;;0.88;0.80;;;18.00;98.10;;;;;;5033035;28;20045;-62
2022/05/07 08:42:50;;;;;;;0.95;0.73;;;18.30;97.20;;;;;;5033010;28;20042;-62
2022/05/07 08:45:16;;;;;;;1.88;0.95;;;18.40;96.90;;;;;;5033034;28;20032;-62
2022/05/07 08:47:43;;;;;;;1.48;1.00;;;18.40;96.30;;;;;;5032911;28;20030;-62
2022/05/07 08:50:10;;;;;;;0.70;0.53;;;18.50;96.40;;;;;;5032951;28;20036;-63
2022/05/07 08:52:39;;;;;;;;;;;18.60;97.20;;;;;;5033214;28;20057;-64
2022/05/07 08:55:06;;;;;;;1.33;0.80;;;18.90;97.40;;;;;;5032734;28;19905;-62
2022/05/07 08:57:31;;;;;;;1.23;0.90;;;19.20;95.50;;;;;;5032742;28;20038;-63
2022/05/07 08:59:58;;;;;;;3.25;1.10;;;19.00;94.60;;;;;;5015124;28;20448;-64
2022/05/07 09:02:23;;;;;;;2.25;1.23;;;19.00;94.70;;;;;;5032742;28;20037;-63
2022/05/07 09:04:58;;;;;;;1.20;0.80;;;18.90;94.40;;;;;;5032678;28;20040;-64
2022/05/07 09:07:26;;;;;;;0.73;0.60;;;18.60;95.70;;;;;;5014990;28;20065;-63
2022/05/07 09:09:52;;;;;;;0.70;0.68;;;18.50;96.40;;;;;;5032564;28;20068;-64
2022/05/07 09:12:25;;;;;;;1.52;0.70;;;18.50;96.90;;;;;;5032743;28;20426;-64
2022/05/07 09:14:51;;;;;;;0.85;0.73;;;18.40;96.30;;;;;;5032637;28;20552;-64
2022/05/07 09:17:20;;;;;;;1.30;0.90;;;18.50;96.30;;;;;;5032537;28;20029;-63
2022/05/07 09:19:45;;;;;;;2.65;1.60;;;18.50;96.60;;;;;;5032438;28;20025;-63
2022/05/07 09:22:11;;;;;;;1.55;0.70;;;18.60;96.60;;;;;;5032480;28;20121;-63
2022/05/07 09:24:39;;;;;;;0.70;0.60;;;18.80;94.90;;;;;;5032484;28;20472;-63
2022/05/07 09:27:05;;;;;;;1.13;0.75;;;18.50;94.90;;;;;;5014279;28;20062;-64
2022/05/07 09:29:32;;;;;;;0.73;0.68;;;18.60;95.50;;;;;;5032264;28;20045;-64
2022/05/07 09:32:14;;;;;;;0.75;0.60;;;18.50;96.10;;;;;;5032216;28;20108;-64
2022/05/07 09:37:36;;;;;;;0.77;0.70;;;18.50;96.00;;;;;;5032327;28;20405;-64
2022/05/07 09:40:11;;;;;;;;;;;18.70;96.20;;;;;;5032782;28;20452;-64
2022/05/07 09:42:37;;;;;;;0.82;0.80;;;19.10;95.90;;;;;;5032598;28;19912;-64
2022/05/07 09:45:06;;;;;;;0.80;0.80;;;20.00;94.00;;;;;;5032130;28;20037;-64
2022/05/07 09:47:33;;;;;;;0.95;0.80;;;20.50;93.30;;;;;;5032318;28;20041;-63
2022/05/07 09:58:18;;;;;;;0.55;0.47;;;19.70;93.00;;;;;;5036220;28;20084;-64
2022/05/07 10:01:08;;;;;;;0.68;0.50;;;19.50;93.00;;;;;;5035950;28;20050;-64
2022/05/07 10:03:56;;;;;;;0.45;0.45;;;19.50;92.80;;;;;;5018382;28;20064;-64
2022/05/07 10:06:53;;;;;;;0.43;0.40;;;19.10;93.10;;;;;;5035900;28;20087;-64
2022/05/07 10:09:33;;;;;;;0.70;0.60;;;18.80;93.20;;;;;;5015163;28;20041;-64
2022/05/07 10:12:00;;;;;;;0.40;0.40;;;18.70;91.90;;;;;;5035783;28;20594;-64
2022/05/07 10:14:31;;;;;;;0.50;0.40;;;18.60;93.40;;;;;;5035690;28;20040;-64
2022/05/07 10:17:11;;;;;;;0.55;0.40;;;18.70;94.70;;;;;;5035784;28;20104;-64
2022/05/07 10:19:42;;;;;;;0.32;0.32;;;18.50;94.30;;;;;;5035959;28;20041;-64
2022/05/07 10:22:21;;;;;;;0.70;0.70;;;18.30;96.10;;;;;;5035723;28;20032;-63
2022/05/07 10:25:05;;;;;;;1.23;0.70;;;17.90;96.40;;;;;;5035762;28;20112;-64
2022/05/07 10:27:44;;;;;;;1.13;0.70;;;17.80;96.60;;;;;;5035484;28;20049;-63
2022/05/07 10:30:23;;;;;;;2.63;0.90;;;17.90;97.90;;;;;;5035928;28;20041;-64
2022/05/07 10:32:59;;;;;;;1.08;0.60;;;17.90;97.20;;;;;;5035568;28;20412;-64
2022/05/07 10:35:47;;;;;;;0.57;0.57;;;18.10;96.90;;;;;;5035002;28;20037;-64
2022/05/07 10:38:26;;;;;;;1.60;0.80;;;18.10;97.10;;;;;;5035253;28;20485;-63
2022/05/07 10:41:01;;;;;;;1.55;0.70;;;18.20;96.70;;;;;;5035138;28;20096;-64
2022/05/07 10:43:36;;;;;;;0.65;0.65;;;18.30;96.60;;;;;;5034843;28;20064;-64
2022/05/07 10:46:08;;;;;;;0.60;0.60;;;18.30;96.30;;;;;;5021577;28;20429;-64
2022/05/07 10:48:44;;;;;;;1.00;0.90;;;18.40;96.80;;;;;;5014069;28;20034;-64
2022/05/07 10:51:37;;;;;;;1.60;0.73;;;18.60;96.50;;;;;;5015387;28;20033;-64
2022/05/07 10:54:21;;;;;;;0.70;0.70;;;18.80;95.20;;;;;;5013621;28;20081;-64
2022/05/07 10:56:58;;;;;;;0.80;0.65;;;18.70;95.10;;;;;;5015210;28;20037;-63
2022/05/07 10:59:26;;;;;;;0.52;0.52;;;18.80;95.30;;;;;;5015291;28;20038;-64
2022/05/07 11:02:08;;;;;;;0.63;0.60;;;19.40;93.90;;;;;;5014515;28;20468;-65
2022/05/07 11:04:43;;;;;;;0.55;0.55;;;19.90;93.60;;;;;;5014950;28;20128;-65
2022/05/07 11:07:10;;;;;;;1.13;0.70;;;19.90;93.50;;;;;;5015263;28;20088;-65
2022/05/07 11:09:37;;;;;;;0.60;0.60;;;20.20;94.20;;;;;;5015235;28;20057;-65
2022/05/07 11:12:04;;;;;;;0.82;0.82;;;21.70;92.90;;;;;;5014947;28;20038;-65
2022/05/07 11:14:37;;;;;;;1.77;0.82;;;22.70;86.00;;;;;;5014884;28;20454;-65
2022/05/07 11:17:04;;;;;;;1.80;1.10;;;23.40;83.80;;;;;;5014908;28;20054;-65
2022/05/07 11:19:32;;;;;;;3.85;1.60;;;22.70;88.80;;;;;;5015009;28;20034;-65
2022/05/07 11:22:00;;;;;;;1.70;1.60;;;21.20;91.10;;;;;;4997382;28;20125;-64
2022/05/07 11:24:27;;;;;;;1.50;1.40;;;20.30;92.90;;;;;;5015009;28;20042;-64
2022/05/07 11:26:58;;;;;;;3.10;1.70;;;19.70;92.50;;;;;;5014542;28;20069;-64
2022/05/07 11:29:25;;;;;;;2.38;1.70;;;18.80;93.30;;;;;;5014396;28;20060;-64
2022/05/07 11:32:06;;;;;;;2.97;1.45;;;18.00;96.40;;;;;;5014447;28;20038;-64
2022/05/07 11:34:40;;;;;;;1.95;1.40;;;17.60;97.40;;;;;;5013427;28;20042;-64
2022/05/07 11:37:16;;;;;;;2.30;1.23;;;17.20;99.00;;;;;;5014531;28;20025;-63
2022/05/07 11:39:56;;;;;;;1.87;1.40;;;16.90;98.40;;;;;;5004643;28;20042;-63
2022/05/07 11:42:44;;;;;;;2.80;2.55;;;16.50;99.90;;;;;;5016733;28;20818;-63
2022/05/07 11:45:26;;;;;;;4.13;2.78;;;16.10;99.90;;;;;;5034280;28;20044;-63
2022/05/07 11:48:06;;;;;;;3.40;2.40;;;15.80;99.90;;;;;;5034501;28;20076;-62
2022/05/07 11:50:43;;;;;;;3.45;2.47;;;15.40;99.90;;;;;;5034029;28;20030;-62
2022/05/07 11:53:12;;;;;;;5.20;4.03;;;15.20;99.90;;;;;;5034041;28;20060;-63
2022/05/07 11:55:39;;;;;;;9.45;5.45;;;14.90;99.90;;;;;;5016190;28;20490;-62
2022/05/07 11:58:20;;;;;;;8.07;5.40;;;14.80;99.90;;;;;;5034025;28;20105;-62
2022/05/07 12:00:47;;;;;;;5.55;3.25;;;14.70;99.90;;;;;;5015857;28;20049;-62
2022/05/07 12:03:23;;;;;;;3.33;2.90;;;14.80;99.90;;;;;;5034084;28;20037;-63
2022/05/07 12:05:50;;;;;;;6.30;4.75;;;14.80;99.90;;;;;;5033746;28;20645;-62
2022/05/07 12:08:17;;;;;;;4.40;3.50;;;14.90;99.90;;;;;;5033902;28;20087;-62
2022/05/07 12:10:44;;;;;;;3.30;2.92;;;15.00;99.90;;;;;;5033485;28;20073;-61
2022/05/07 12:13:12;;;;;;;6.53;2.90;;;15.10;99.90;;;;;;5032550;28;20386;-62
2022/05/07 12:18:24;;;;;;;4.70;2.35;;;15.20;99.90;;;;;;5032924;28;20055;-62
2022/05/07 12:20:50;;;;;;;;;;;15.20;99.90;;;;;;5034061;28;20037;-61
2022/05/07 12:31:29;;;;;;;3.42;2.60;;;15.40;99.90;;;;;;5032486;28;20065;-62
2022/05/07 12:33:55;;;;;;;1.92;1.73;;;15.40;99.90;;;;;;5033096;28;20025;-62
2022/05/07 12:36:21;;;;;;;2.35;1.95;;;15.50;99.90;;;;;;5033342;28;20065;-61
2022/05/07 12:38:46;;;;;;;2.00;1.75;;;15.60;99.90;;;;;;5033270;28;20478;-62
2022/05/07 12:41:12;;;;;;;1.38;1.15;;;15.70;99.90;;;;;;5033208;28;20046;-62
2022/05/07 12:43:39;;;;;;;2.90;2.05;;;15.80;99.90;;;;;;5033116;28;20045;-61
2022/05/07 12:46:04;;;;;;;4.50;2.45;;;15.70;99.90;;;;;;5033019;28;20033;-61
2022/05/07 12:48:30;;;;;;;3.38;1.75;;;15.70;99.90;;;;;;5033120;28;20482;-62
2022/05/07 12:50:56;;;;;;;2.15;1.67;;;15.70;99.90;;;;;;5033026;28;20052;-61
2022/05/07 12:53:21;;;;;;;2.00;1.60;;;15.80;99.90;;;;;;5033201;28;20036;-62
2022/05/07 12:55:47;;;;;;;2.08;1.88;;;16.10;99.90;;;;;;5032981;28;20037;-62
2022/05/07 12:58:13;;;;;;;2.13;1.73;;;16.40;99.90;;;;;;5032928;28;20065;-62
2022/05/07 13:00:40;;;;;;;1.95;1.60;;;16.70;99.90;;;;;;5015078;28;20034;-62
2022/05/07 13:03:06;;;;;;;2.28;1.77;;;17.10;99.90;;;;;;5032788;28;20041;-62
2022/05/07 13:05:35;;;;;;;1.98;1.77;;;17.60;99.90;;;;;;5032802;28;20025;-62
2022/05/07 13:08:04;;;;;;;1.92;1.67;;;17.70;99.40;;;;;;5032712;28;20394;-62
2022/05/07 13:10:33;;;;;;;3.28;1.80;;;17.90;99.90;;;;;;5032767;28;20486;-62
2022/05/07 13:12:59;;;;;;;2.10;1.40;;;17.80;99.90;;;;;;5032853;28;20037;-62
2022/05/07 13:15:28;;;;;;;1.70;1.60;;;17.70;99.90;;;;;;5032773;28;20537;-62
2022/05/07 13:17:57;;;;;;;1.75;1.65;;;17.80;99.90;;;;;;5014917;28;20033;-63
2022/05/07 13:20:24;;;;;;;2.45;1.88;;;17.70;99.90;;;;;;5032749;28;20477;-62
2022/05/07 13:22:49;;;;;;;2.00;1.80;;;17.70;99.70;;;;;;5032572;28;20113;-62
2022/05/07 13:25:15;;;;;;;3.42;2.00;;;18.00;99.90;;;;;;5032454;28;20128;-63
2022/05/07 13:27:41;;;;;;;2.30;1.92;;;18.80;99.30;;;;;;5032299;28;20058;-62
2022/05/07 13:30:07;;;;;;;1.98;1.80;;;20.10;96.90;;;;;;5032621;28;20040;-63
2022/05/07 13:32:37;;;;;;;1.87;1.60;;;21.30;94.70;;;;;;5014538;28;20048;-63